Time;durP1;ratioP1;P1;durP2;ratioP2;P2;SDS_P1;SDS_P2;PMS_P1;PMS_P2;Temp;Humidity;BMP_temperature;BMP_pressure;BME280_temperature;BME280_humidity;BME280_pressure;Samples;Min_cycle;Max_cycle;Signal;HPM_P1;HPM_P2
2022/05/23 00:00:24;;;;;;;10.32;4.75;;;;;;;18.84;55.31;100783.72;5018713;28;20041;-73
2022/05/23 00:02:50;;;;;;;9.63;5.07;;;;;;;18.75;55.35;100777.69;5018250;28;20124;-73
2022/05/23 00:05:16;;;;;;;9.32;4.68;;;;;;;18.69;55.94;100771.69;5016779;28;20034;-73
2022/05/23 00:07:45;;;;;;;9.05;5.15;;;;;;;18.68;56.12;100777.72;5015129;28;20053;-73
2022/05/23 00:10:12;;;;;;;12.35;4.93;;;;;;;18.68;56.20;100772.53;5015137;28;20064;-73
2022/05/23 00:12:39;;;;;;;13.65;5.13;;;;;;;18.69;55.80;100762.13;5012279;28;20029;-73
2022/05/23 00:15:07;;;;;;;10.52;5.15;;;;;;;18.70;56.31;100768.19;5015739;28;20033;-73
2022/05/23 00:17:32;;;;;;;10.88;4.75;;;;;;;18.68;56.29;100768.19;5016607;28;21467;-73
2022/05/23 00:19:58;;;;;;;12.77;4.80;;;;;;;18.69;56.42;100780.34;5012259;28;20117;-73
2022/05/23 00:22:23;;;;;;;13.60;5.20;;;;;;;18.71;57.08;100781.19;5015130;28;20041;-73
2022/05/23 00:24:49;;;;;;;9.90;5.10;;;;;;;18.73;57.09;100782.03;5016154;28;20464;-73
2022/05/23 00:27:18;;;;;;;12.93;5.20;;;;;;;18.63;56.24;100769.94;5015063;28;20490;-73
2022/05/23 00:29:44;;;;;;;9.75;5.20;;;;;;;18.60;56.00;100762.13;5020734;28;20033;-73
2022/05/23 00:37:38;;;;;;;10.82;4.75;;;;;;;18.55;56.45;100745.66;5010289;28;20270;-73
2022/05/23 00:40:04;;;;;;;12.10;5.32;;;;;;;18.51;56.80;100743.97;5019638;28;20564;-73
2022/05/23 00:45:17;;;;;;;8.32;4.93;;;;;;;18.57;56.61;100745.69;5017040;28;20089;-73
2022/05/23 00:47:43;;;;;;;12.07;4.95;;;;;;;18.48;56.95;100739.63;5016472;28;20104;-73
2022/05/23 00:50:13;;;;;;;11.85;4.80;;;;;;;18.53;56.29;100742.22;5018131;28;20029;-73
2022/05/23 00:52:42;;;;;;;11.55;4.78;;;;;;;18.48;56.77;100728.38;5014091;28;21915;-73
2022/05/23 00:55:12;;;;;;;;;;;;;;;18.65;55.93;100723.03;5015245;28;20036;-73
2022/05/23 00:57:42;;;;;;;8.80;4.63;;;;;;;18.51;56.69;100720.53;5011366;28;19982;-73
2022/05/23 01:00:09;;;;;;;11.38;4.53;;;;;;;18.50;56.57;100708.38;5015394;28;20476;-73
2022/05/23 01:02:36;;;;;;;10.18;4.38;;;;;;;18.43;56.49;100711.91;5016389;28;20423;-73
2022/05/23 01:05:08;;;;;;;8.80;4.80;;;;;;;18.40;56.65;100709.34;5015238;28;20022;-73
2022/05/23 01:07:33;;;;;;;9.38;4.63;;;;;;;18.40;56.72;100702.38;5015178;28;20057;-73
2022/05/23 01:09:58;;;;;;;8.95;4.75;;;;;;;18.32;57.03;100706.78;5012523;28;20041;-74
2022/05/23 01:12:25;;;;;;;10.35;4.80;;;;;;;18.33;57.28;100708.50;5016621;28;20038;-73
2022/05/23 01:14:53;;;;;;;10.02;4.85;;;;;;;18.31;56.95;100717.19;5017916;28;20124;-73
2022/05/23 01:17:20;;;;;;;8.60;4.63;;;;;;;18.30;57.11;100720.66;5015682;28;20022;-73
2022/05/23 01:19:46;;;;;;;14.43;4.82;;;;;;;18.35;56.93;100716.31;5016987;28;20041;-74
2022/05/23 01:22:37;;;;;;;9.75;4.88;;;;;;;18.36;56.75;100718.03;5015420;28;21998;-73
2022/05/23 01:25:08;;;;;;;11.38;4.45;;;;;;;18.38;57.12;100721.47;5015538;28;20060;-74
2022/05/23 01:27:34;;;;;;;11.48;4.57;;;;;;;18.27;57.17;100724.16;5013533;28;20060;-73
2022/05/23 01:30:00;;;;;;;7.45;4.10;;;;;;;18.26;56.93;100709.44;5011316;28;20983;-73
2022/05/23 01:32:25;;;;;;;8.48;4.53;;;;;;;18.19;57.61;100707.69;5015246;28;20033;-73
2022/05/23 01:34:51;;;;;;;8.95;4.53;;;;;;;18.21;57.09;100709.44;5015059;28;20037;-73
2022/05/23 01:37:16;;;;;;;8.43;4.22;;;;;;;18.16;58.05;100715.53;5015359;28;20120;-73
2022/05/23 01:39:42;;;;;;;12.38;4.90;;;;;;;18.22;57.72;100705.97;5012363;28;20152;-73
2022/05/23 01:42:08;;;;;;;9.48;4.97;;;;;;;18.20;57.37;100704.22;5014064;28;20029;-74
2022/05/23 01:44:34;;;;;;;10.45;4.93;;;;;;;18.16;58.00;100702.53;5014201;28;20480;-74
2022/05/23 01:47:06;;;;;;;11.25;4.93;;;;;;;18.14;57.69;100704.25;5013050;28;20025;-73
2022/05/23 01:49:32;;;;;;;9.68;4.80;;;;;;;18.14;57.88;100701.66;5015490;28;20040;-73
2022/05/23 01:51:57;;;;;;;10.52;5.13;;;;;;;18.07;57.90;100703.44;5015354;28;20033;-73
2022/05/23 01:54:23;;;;;;;9.50;4.80;;;;;;;18.11;57.86;100701.69;5016017;28;20096;-73
2022/05/23 01:56:48;;;;;;;11.25;5.32;;;;;;;18.12;58.35;100708.63;5012699;28;20076;-73
2022/05/23 02:01:57;;;;;;;8.75;5.05;;;;;;;18.09;58.54;100704.31;5015004;28;20036;-74
2022/05/23 02:04:23;;;;;;;14.15;5.70;;;;;;;18.07;57.96;100711.22;5015292;28;20422;-73
2022/05/23 02:06:48;;;;;;;9.70;5.03;;;;;;;18.04;58.00;100705.19;5026593;28;20708;-73
2022/05/23 02:09:13;;;;;;;10.88;5.03;;;;;;;18.00;58.14;100688.72;5011800;28;20048;-73
2022/05/23 02:11:39;;;;;;;10.20;4.88;;;;;;;17.97;58.38;100682.69;5011304;28;20029;-73
2022/05/23 02:14:04;;;;;;;9.95;4.85;;;;;;;17.90;58.47;100685.31;5014261;28;20053;-73
2022/05/23 02:16:29;;;;;;;16.50;5.30;;;;;;;17.92;58.76;100673.16;5015715;28;20049;-73
2022/05/23 02:18:55;;;;;;;9.75;4.90;;;;;;;17.90;59.15;100682.72;5030268;28;20095;-73
2022/05/23 02:21:21;;;;;;;10.18;4.95;;;;;;;17.97;59.01;100677.50;5018190;28;20033;-73
2022/05/23 02:23:46;;;;;;;10.57;5.05;;;;;;;17.91;59.44;100679.25;5011650;28;20029;-73
2022/05/23 02:26:11;;;;;;;14.50;4.80;;;;;;;17.98;59.29;100680.09;5003985;28;20381;-73
2022/05/23 02:28:37;;;;;;;8.52;4.78;;;;;;;17.92;59.17;100669.69;4992894;28;20037;-73
2022/05/23 02:31:02;;;;;;;10.23;5.28;;;;;;;17.95;58.84;100672.28;5011531;28;20029;-73
2022/05/23 02:33:28;;;;;;;7.15;4.40;;;;;;;17.86;59.90;100667.13;5010099;28;20029;-73
2022/05/23 02:35:53;;;;;;;9.82;5.38;;;;;;;17.86;59.83;100656.72;5011032;28;20021;-73
2022/05/23 02:38:19;;;;;;;11.50;5.15;;;;;;;17.82;59.37;100655.88;5016050;28;20091;-73
2022/05/23 02:40:44;;;;;;;9.48;5.20;;;;;;;17.87;59.29;100661.06;5012117;28;20040;-74
2022/05/23 02:43:09;;;;;;;10.68;4.95;;;;;;;17.85;59.89;100655.88;5010691;28;20045;-73
2022/05/23 02:45:36;;;;;;;15.43;5.72;;;;;;;17.84;59.24;100650.69;5011273;28;20034;-73
2022/05/23 02:48:02;;;;;;;12.23;5.53;;;;;;;17.82;59.71;100652.41;5013518;28;20026;-73
2022/05/23 02:50:28;;;;;;;11.60;5.45;;;;;;;17.85;59.57;100652.41;5016814;28;20407;-73
2022/05/23 02:52:55;;;;;;;14.30;6.07;;;;;;;17.78;59.60;100635.97;5008200;28;20080;-73
2022/05/23 02:55:20;;;;;;;9.45;5.72;;;;;;;17.83;59.80;100639.38;5009815;28;20093;-73
2022/05/23 02:57:46;;;;;;;10.20;5.53;;;;;;;17.80;59.69;100631.63;5014421;28;20547;-73
2022/05/23 03:00:12;;;;;;;10.93;6.32;;;;;;;17.81;59.85;100624.69;5013114;28;20067;-73
2022/05/23 03:05:21;;;;;;;7.82;5.57;;;;;;;17.66;60.03;100603.06;5014728;28;20114;-73
2022/05/23 03:07:46;;;;;;;10.10;5.80;;;;;;;17.62;60.37;100585.72;5013285;28;20053;-73
2022/05/23 03:10:12;;;;;;;9.75;5.70;;;;;;;17.65;60.54;100583.13;5013848;28;20026;-73
2022/05/23 03:12:38;;;;;;;11.45;5.97;;;;;;;17.59;60.49;100566.66;5015543;28;20109;-73
2022/05/23 03:15:05;;;;;;;10.85;5.60;;;;;;;17.58;60.71;100557.16;5010429;28;20034;-73
2022/05/23 03:17:31;;;;;;;8.68;5.63;;;;;;;17.63;60.33;100558.84;5013810;28;20067;-73
2022/05/23 03:19:57;;;;;;;10.75;6.00;;;;;;;17.58;60.63;100549.34;5018029;28;20042;-73
2022/05/23 03:27:51;;;;;;;10.27;5.60;;;;;;;17.55;61.16;100544.19;5015510;28;20136;-73
2022/05/23 03:30:16;;;;;;;9.93;5.90;;;;;;;17.54;61.40;100547.66;5013603;28;20648;-73
2022/05/23 03:32:42;;;;;;;11.52;5.63;;;;;;;17.55;61.20;100546.78;5019096;28;20076;-73
2022/05/23 03:35:08;;;;;;;10.00;5.38;;;;;;;17.51;61.50;100540.72;5018360;28;20029;-73
2022/05/23 03:37:34;;;;;;;10.43;5.90;;;;;;;17.46;61.63;100529.47;5014947;28;20041;-73
2022/05/23 03:40:02;;;;;;;10.50;5.47;;;;;;;17.48;61.54;100530.34;5015276;28;20049;-73
2022/05/23 03:42:29;;;;;;;9.50;6.13;;;;;;;17.50;61.75;100528.59;5018103;28;20771;-73
2022/05/23 03:44:54;;;;;;;11.30;6.22;;;;;;;17.47;62.08;100520.81;5015350;28;20046;-73
2022/05/23 03:47:20;;;;;;;10.80;6.20;;;;;;;17.46;61.71;100518.22;5010180;28;20132;-73
2022/05/23 03:49:45;;;;;;;10.50;6.10;;;;;;;17.45;61.71;100519.09;5019757;28;20030;-73
2022/05/23 03:52:11;;;;;;;11.55;6.40;;;;;;;17.47;62.02;100512.16;5018154;28;20052;-73
2022/05/23 03:54:36;;;;;;;12.88;6.30;;;;;;;17.48;62.04;100514.75;5015661;28;20112;-73
2022/05/23 03:57:03;;;;;;;12.38;6.45;;;;;;;17.38;62.95;100505.28;5012113;28;20380;-73
2022/05/23 03:59:30;;;;;;;11.82;6.50;;;;;;;17.45;62.46;100508.69;5017163;28;20140;-73
2022/05/23 04:01:57;;;;;;;12.38;5.68;;;;;;;17.43;62.48;100493.13;5012094;28;20055;-73
2022/05/23 04:04:27;;;;;;;10.20;6.10;;;;;;;17.47;62.47;100502.63;5018516;28;20033;-73
2022/05/23 04:06:57;;;;;;;11.32;6.07;;;;;;;17.43;62.70;100503.53;5016620;28;20050;-73
2022/05/23 04:09:23;;;;;;;9.73;6.15;;;;;;;17.43;63.12;100504.38;5013762;28;20028;-73
2022/05/23 04:11:48;;;;;;;11.98;5.80;;;;;;;17.46;62.94;100494.84;5017592;28;20041;-73
2022/05/23 04:14:14;;;;;;;9.75;6.10;;;;;;;17.40;63.22;100493.13;5021435;28;20030;-73
2022/05/23 04:16:39;;;;;;;10.35;6.07;;;;;;;17.38;62.78;100485.34;5018320;28;20049;-73
2022/05/23 04:19:05;;;;;;;11.35;6.00;;;;;;;17.37;63.43;100490.56;5011165;28;20041;-73
2022/05/23 04:21:31;;;;;;;13.20;6.22;;;;;;;17.32;63.28;100477.59;5019046;28;20037;-73
2022/05/23 04:23:57;;;;;;;8.68;5.95;;;;;;;17.31;63.80;100482.81;5016792;28;20764;-73
2022/05/23 04:26:23;;;;;;;11.25;6.53;;;;;;;17.34;63.82;100480.16;5017572;28;20030;-73
2022/05/23 04:28:48;;;;;;;11.48;6.30;;;;;;;17.31;63.53;100468.06;5017299;28;20033;-74
2022/05/23 04:31:14;;;;;;;11.93;6.68;;;;;;;17.33;64.20;100465.44;5016224;28;20041;-73
2022/05/23 04:36:24;;;;;;;13.40;6.72;;;;;;;17.35;64.25;100469.78;5015620;28;20049;-74
2022/05/23 04:38:49;;;;;;;13.05;6.75;;;;;;;17.38;64.02;100469.75;5017439;28;20416;-73
2022/05/23 04:41:15;;;;;;;12.50;6.47;;;;;;;17.39;63.89;100473.22;5013080;28;20044;-73
2022/05/23 04:43:40;;;;;;;12.23;6.53;;;;;;;17.39;64.49;100475.81;5014993;28;20030;-74
2022/05/23 04:46:06;;;;;;;11.40;6.30;;;;;;;17.42;64.46;100470.63;5013438;28;20113;-73
2022/05/23 04:51:15;;;;;;;12.30;6.53;;;;;;;17.38;65.08;100454.16;5017390;28;20142;-73
2022/05/23 04:53:41;;;;;;;10.13;6.60;;;;;;;17.41;64.54;100453.25;5012112;28;20025;-73
2022/05/23 04:56:07;;;;;;;10.85;6.47;;;;;;;17.38;65.14;100453.31;5016653;28;20479;-73
2022/05/23 04:58:32;;;;;;;12.25;6.68;;;;;;;17.39;65.22;100453.28;5010819;28;20048;-73
2022/05/23 05:00:59;;;;;;;12.38;7.00;;;;;;;17.36;65.94;100447.25;5013335;28;20103;-73
2022/05/23 05:03:24;;;;;;;14.55;6.85;;;;;;;17.39;66.02;100444.63;5012941;28;20041;-74
2022/05/23 05:05:50;;;;;;;11.40;6.93;;;;;;;17.37;65.94;100447.25;5014032;28;20033;-74
2022/05/23 05:08:15;;;;;;;14.20;7.28;;;;;;;17.42;65.83;100449.81;5017035;28;20551;-74
2022/05/23 05:10:41;;;;;;;12.20;6.97;;;;;;;17.42;65.80;100447.22;5015313;28;20049;-73
2022/05/23 05:13:08;;;;;;;13.82;6.63;;;;;;;17.47;65.65;100445.44;5012955;28;20076;-73
2022/05/23 05:15:34;;;;;;;14.20;6.75;;;;;;;17.48;65.71;100441.97;5017196;28;20103;-73
2022/05/23 05:18:00;;;;;;;15.05;6.95;;;;;;;17.42;66.18;100434.22;5011802;28;20053;-73
2022/05/23 05:20:25;;;;;;;10.55;6.88;;;;;;;17.46;65.75;100428.09;5013291;28;20029;-74
2022/05/23 05:22:51;;;;;;;12.20;7.10;;;;;;;17.47;66.20;100406.44;5014043;28;20817;-73
2022/05/23 05:25:17;;;;;;;12.43;7.25;;;;;;;17.44;66.01;100414.28;5016242;28;20132;-74
2022/05/23 05:27:43;;;;;;;13.15;6.93;;;;;;;17.40;66.33;100402.16;5014104;28;20037;-73
2022/05/23 05:30:12;;;;;;;14.85;7.32;;;;;;;17.44;66.23;100398.69;5011534;28;20029;-73
2022/05/23 05:32:44;;;;;;;12.25;7.07;;;;;;;17.51;66.36;100396.91;5010247;28;20088;-73
2022/05/23 05:35:47;;;;;;;11.10;7.18;;;;;;;17.58;65.99;100391.63;5014550;28;20112;-74
2022/05/23 05:38:28;;;;;;;11.50;7.13;;;;;;;17.61;66.43;100386.41;5009117;28;20030;-73
2022/05/23 05:41:04;;;;;;;13.80;7.13;;;;;;;17.61;66.64;100389.00;5014526;28;20075;-73
2022/05/23 05:43:38;;;;;;;10.02;6.72;;;;;;;17.68;66.34;100389.81;5012986;28;20044;-73
2022/05/23 05:46:10;;;;;;;14.05;6.72;;;;;;;17.70;66.59;100383.72;5011260;28;20132;-73
2022/05/23 05:48:40;;;;;;;8.90;6.00;;;;;;;17.73;66.46;100382.03;5011558;28;20068;-73
2022/05/23 05:51:08;;;;;;;12.68;6.72;;;;;;;17.76;65.97;100371.56;5013631;28;20510;-73
2022/05/23 05:53:33;;;;;;;10.02;6.80;;;;;;;17.78;66.40;100368.09;5009931;28;20468;-73
2022/05/23 05:56:01;;;;;;;9.25;6.18;;;;;;;17.80;66.64;100366.34;5010733;28;20036;-73
2022/05/23 05:58:28;;;;;;;10.87;6.60;;;;;;;17.85;66.79;100361.09;5008766;28;20029;-74
2022/05/23 06:00:53;;;;;;;11.13;6.53;;;;;;;17.87;66.41;100368.00;5014988;28;20060;-73
2022/05/23 06:03:19;;;;;;;12.23;6.35;;;;;;;17.90;66.05;100360.19;5011514;28;20033;-73
2022/05/23 06:11:25;;;;;;;10.60;6.13;;;;;;;18.00;65.68;100350.53;5012858;28;20137;-73
2022/05/23 06:13:58;;;;;;;10.35;6.03;;;;;;;18.09;65.63;100355.66;5016320;28;20924;-72
2022/05/23 06:16:30;;;;;;;10.93;6.10;;;;;;;18.12;64.93;100366.00;5021478;28;20464;-71
2022/05/23 06:18:56;;;;;;;10.68;6.35;;;;;;;18.13;64.66;100357.31;5017567;28;20038;-73
2022/05/23 06:21:23;;;;;;;11.88;6.10;;;;;;;18.21;64.59;100359.84;5002854;28;21745;-73
2022/05/23 06:23:49;;;;;;;13.35;6.38;;;;;;;18.23;64.70;100343.34;5018168;28;20034;-76
2022/05/23 06:26:17;;;;;;;10.68;6.22;;;;;;;18.31;64.47;100339.78;5021244;28;20083;-76
2022/05/23 06:28:44;;;;;;;11.10;6.13;;;;;;;18.34;64.16;100338.00;5016146;28;20037;-76
2022/05/23 06:31:09;;;;;;;10.60;6.25;;;;;;;18.36;63.94;100333.63;5019245;28;20095;-76
2022/05/23 06:33:36;;;;;;;13.30;6.80;;;;;;;18.38;63.92;100333.59;5015747;28;20025;-75
2022/05/23 06:36:03;;;;;;;12.60;6.68;;;;;;;18.42;63.75;100328.34;5013337;28;20037;-79
2022/05/23 06:38:29;;;;;;;12.45;6.95;;;;;;;18.42;63.63;100325.75;5007682;28;20074;-77
2022/05/23 06:40:54;;;;;;;10.95;6.80;;;;;;;18.46;63.63;100323.97;5012897;28;20072;-77
2022/05/23 06:43:21;;;;;;;7.80;6.03;;;;;;;18.53;63.97;100317.81;5015493;28;20079;-76
2022/05/23 06:45:47;;;;;;;10.52;6.85;;;;;;;18.55;63.96;100313.44;5018604;28;20514;-77
2022/05/23 06:48:12;;;;;;;12.63;6.32;;;;;;;18.56;64.18;100309.94;5013881;28;20026;-77
2022/05/23 06:50:38;;;;;;;10.15;6.60;;;;;;;18.62;63.85;100309.84;5012914;28;20060;-77
2022/05/23 06:53:03;;;;;;;12.48;6.70;;;;;;;18.63;62.92;100303.78;5019426;28;20030;-77
2022/05/23 06:55:29;;;;;;;13.88;6.80;;;;;;;18.68;62.74;100309.81;5019947;28;20041;-77
2022/05/23 06:57:55;;;;;;;10.85;6.43;;;;;;;18.78;63.39;100314.91;5024923;28;20033;-77
2022/05/23 07:00:21;;;;;;;9.27;6.38;;;;;;;18.81;63.42;100309.63;5022713;28;20399;-78
2022/05/23 07:02:47;;;;;;;12.55;6.70;;;;;;;18.87;63.40;100309.53;5022864;28;20468;-78
2022/05/23 07:13:26;;;;;;;7.97;5.88;;;;;;;18.96;62.75;100315.50;5018727;28;20036;-77
2022/05/23 07:15:54;;;;;;;11.18;6.68;;;;;;;18.95;62.73;100320.72;5017546;28;20021;-77
2022/05/23 07:18:20;;;;;;;11.55;6.45;;;;;;;18.96;62.81;100331.13;5023202;28;20025;-76
2022/05/23 07:20:46;;;;;;;15.20;7.65;;;;;;;18.95;62.68;100313.78;5027890;28;20041;-76
2022/05/23 07:23:12;;;;;;;10.23;6.78;;;;;;;18.94;62.77;100309.44;5024285;28;20017;-76
2022/05/23 07:25:38;;;;;;;9.60;6.68;;;;;;;18.98;62.51;100313.72;5028431;28;20029;-76
2022/05/23 07:28:04;;;;;;;9.98;7.05;;;;;;;19.01;62.75;100310.22;5023707;28;20084;-76
2022/05/23 07:30:30;;;;;;;14.27;7.25;;;;;;;18.97;62.33;100306.78;5028394;28;20029;-76
2022/05/23 07:32:57;;;;;;;12.30;8.43;;;;;;;19.00;62.76;100304.16;5022003;28;20088;-75
2022/05/23 07:35:24;;;;;;;15.05;8.10;;;;;;;19.02;62.35;100304.13;5022694;28;20037;-76
2022/05/23 07:37:50;;;;;;;11.30;7.50;;;;;;;19.07;63.05;100304.91;5023769;28;20117;-76
2022/05/23 07:40:16;;;;;;;11.18;8.25;;;;;;;19.08;62.80;100308.38;5021442;28;20029;-77
2022/05/23 07:42:42;;;;;;;10.65;8.15;;;;;;;19.07;62.76;100312.72;5029516;28;20036;-78
2022/05/23 07:45:08;;;;;;;15.73;9.13;;;;;;;19.12;63.05;100307.44;5019826;28;20021;-77
2022/05/23 07:47:34;;;;;;;12.38;8.55;;;;;;;19.10;63.16;100302.25;5030046;28;20017;-78
2022/05/23 07:49:59;;;;;;;12.48;8.60;;;;;;;19.13;63.04;100306.56;5023884;28;20035;-77
2022/05/23 07:52:26;;;;;;;13.45;8.30;;;;;;;19.19;62.92;100304.72;5012937;28;20136;-78
2022/05/23 08:00:33;;;;;;;11.13;7.30;;;;;;;19.27;62.63;100296.75;5025943;28;20073;-77
2022/05/23 08:03:13;;;;;;;15.18;7.07;;;;;;;19.33;62.82;100303.63;5023974;28;20103;-77
2022/05/23 08:05:39;;;;;;;12.90;7.43;;;;;;;19.32;63.25;100296.69;5024379;28;20033;-77
2022/05/23 08:08:04;;;;;;;11.45;7.25;;;;;;;19.37;62.48;100289.66;5023355;28;20423;-77
2022/05/23 08:10:30;;;;;;;13.73;6.90;;;;;;;19.43;62.23;100285.19;5024843;28;20507;-77
2022/05/23 08:12:57;;;;;;;11.75;6.97;;;;;;;19.56;62.95;100289.31;5024548;28;20055;-77
2022/05/23 08:15:27;;;;;;;13.07;6.70;;;;;;;19.60;62.26;100274.50;5026808;28;20025;-77
2022/05/23 08:17:52;;;;;;;13.43;6.80;;;;;;;19.75;62.34;100266.38;5021902;28;20057;-77
2022/05/23 08:20:18;;;;;;;13.27;6.72;;;;;;;19.81;61.37;100260.19;5025936;28;20056;-77
2022/05/23 08:22:45;;;;;;;12.77;5.93;;;;;;;19.85;61.73;100254.03;5026827;28;20065;-77
2022/05/23 08:25:11;;;;;;;11.98;6.10;;;;;;;19.84;61.12;100249.72;5027703;28;20437;-77
2022/05/23 08:27:36;;;;;;;10.27;6.40;;;;;;;19.83;60.80;100259.25;5026246;28;20392;-77
2022/05/23 08:30:04;;;;;;;9.38;5.45;;;;;;;19.85;60.92;100261.00;5021852;28;20029;-77
2022/05/23 08:32:30;;;;;;;11.70;5.20;;;;;;;19.87;61.26;100254.00;5023386;28;20030;-77
2022/05/23 08:34:55;;;;;;;10.80;5.70;;;;;;;19.83;61.06;100256.66;5019149;28;20044;-77
2022/05/23 08:37:21;;;;;;;10.18;5.50;;;;;;;19.85;60.99;100247.97;5017187;28;20240;-77
2022/05/23 08:39:47;;;;;;;10.85;5.45;;;;;;;19.84;61.50;100244.50;5020243;28;20037;-77
2022/05/23 08:42:31;;;;;;;11.50;5.40;;;;;;;19.88;61.22;100246.13;5016890;28;20120;-77
2022/05/23 08:45:05;;;;;;;9.50;4.85;;;;;;;19.92;60.91;100239.09;5019051;28;20097;-77
2022/05/23 08:47:33;;;;;;;9.10;5.22;;;;;;;19.90;61.07;100227.81;5015146;28;20162;-77
2022/05/23 08:50:10;;;;;;;10.98;4.65;;;;;;;19.93;60.92;100227.78;5015728;28;20032;-77
2022/05/23 08:52:43;;;;;;;8.50;4.80;;;;;;;19.87;60.99;100218.31;5019842;28;20037;-77
2022/05/23 08:55:25;;;;;;;14.25;5.60;;;;;;;19.93;60.99;100219.94;5012760;28;20420;-77
2022/05/23 08:58:16;;;;;;;10.15;5.00;;;;;;;19.96;60.86;100225.97;5017182;28;20040;-77
2022/05/23 09:00:45;;;;;;;9.75;5.65;;;;;;;19.90;60.71;100213.06;5020887;28;20048;-77
2022/05/23 09:03:37;;;;;;;10.32;5.43;;;;;;;19.96;60.53;100212.94;5018220;28;20460;-77
2022/05/23 09:06:18;;;;;;;10.38;5.32;;;;;;;19.95;59.96;100207.72;5019081;28;20036;-77
2022/05/23 09:08:53;;;;;;;7.75;4.68;;;;;;;19.95;60.39;100198.13;5013476;28;20040;-77
2022/05/23 09:11:25;;;;;;;8.05;5.20;;;;;;;19.99;60.01;100207.63;5019682;28;21083;-77
2022/05/23 09:13:51;;;;;;;12.13;4.57;;;;;;;20.02;60.50;100199.75;5017816;28;20021;-77
2022/05/23 09:16:17;;;;;;;7.82;4.60;;;;;;;20.09;59.80;100182.22;5013531;28;20038;-77
2022/05/23 09:18:48;;;;;;;14.50;4.97;;;;;;;20.13;60.33;100183.84;5019462;28;20033;-76
2022/05/23 09:21:13;;;;;;;12.38;4.78;;;;;;;20.15;59.25;100179.47;5016205;28;20032;-76
2022/05/23 09:23:51;;;;;;;11.15;5.15;;;;;;;20.18;59.16;100175.91;5018296;28;20038;-76
2022/05/23 09:26:29;;;;;;;9.13;4.50;;;;;;;20.17;59.93;100164.63;5020084;28;20025;-75
2022/05/23 09:28:56;;;;;;;12.43;5.93;;;;;;;20.19;59.30;100154.13;5017627;28;21803;-77
2022/05/23 09:31:40;;;;;;;9.23;5.88;;;;;;;20.21;59.02;100158.44;5018262;28;20058;-76
2022/05/23 09:34:05;;;;;;;13.63;5.88;;;;;;;20.21;59.58;100168.88;5018748;28;20025;-77
2022/05/23 09:36:37;;;;;;;11.23;5.50;;;;;;;20.21;59.35;100166.28;5015654;28;20547;-76
2022/05/23 09:39:09;;;;;;;8.75;4.90;;;;;;;20.19;60.06;100154.13;5020479;28;20044;-76
2022/05/23 09:49:59;;;;;;;9.82;5.05;;;;;;;20.18;58.36;100114.13;5019956;28;20056;-85
2022/05/23 09:52:29;;;;;;;9.13;4.60;;;;;;;20.28;58.54;100112.16;5018699;28;20041;-83
2022/05/23 09:55:28;;;;;;;9.85;4.88;;;;;;;20.33;58.63;100103.34;5014760;28;20026;-81
2022/05/23 09:57:56;;;;;;;7.75;4.72;;;;;;;20.35;58.60;100101.53;5020070;28;20566;-83
2022/05/23 10:00:22;;;;;;;11.10;4.70;;;;;;;20.45;58.34;100098.72;5027885;28;20093;-86
2022/05/23 10:02:52;;;;;;;8.45;4.63;;;;;;;20.47;58.39;100097.81;5018984;28;20030;-85
2022/05/23 10:05:36;;;;;;;10.85;6.13;;;;;;;20.52;58.62;100087.25;5016042;28;20057;-82
2022/05/23 10:08:12;;;;;;;10.85;5.85;;;;;;;20.53;57.95;100089.81;5014467;28;20415;-85
2022/05/23 10:10:51;;;;;;;11.95;6.38;;;;;;;20.76;58.00;100084.00;5014689;28;20026;-85
2022/05/23 10:13:32;;;;;;;10.75;5.43;;;;;;;20.93;55.97;100077.44;5017440;28;20033;-82
2022/05/23 10:16:24;;;;;;;12.32;5.50;;;;;;;21.21;56.89;100075.81;5017884;28;20054;-83
2022/05/23 10:19:02;;;;;;;14.40;5.47;;;;;;;21.42;58.12;100072.63;5011659;28;20033;-76
2022/05/23 10:21:27;;;;;;;12.57;5.35;;;;;;;21.68;57.39;100071.00;5017023;28;20553;-75
2022/05/23 10:24:07;;;;;;;10.98;5.00;;;;;;;21.80;56.56;100069.75;5019097;28;20033;-76
2022/05/23 10:26:56;;;;;;;8.07;5.00;;;;;;;21.98;54.54;100060.50;5018527;28;20532;-75
2022/05/23 10:29:33;;;;;;;13.05;5.47;;;;;;;22.15;54.91;100073.94;5019627;28;20029;-76
2022/05/23 10:32:09;;;;;;;8.20;5.40;;;;;;;22.27;54.91;100072.69;5015041;28;20629;-77
2022/05/23 10:34:49;;;;;;;12.55;5.88;;;;;;;22.40;53.52;100084.47;5014956;28;20029;-76
2022/05/23 10:37:27;;;;;;;9.80;5.85;;;;;;;22.52;53.56;100085.81;5014730;28;20036;-75
2022/05/23 10:42:46;;;;;;;11.80;5.60;;;;;;;22.79;54.05;100071.78;5013854;28;20052;-76
2022/05/23 10:45:17;;;;;;;11.02;5.70;;;;;;;22.93;51.99;100079.16;5013260;28;20075;-76
2022/05/23 10:48:11;;;;;;;8.90;6.00;;;;;;;23.00;52.56;100072.81;5013391;28;20060;-75
2022/05/23 10:50:55;;;;;;;12.27;6.13;;;;;;;23.14;53.11;100069.69;5017862;28;20037;-76
2022/05/23 10:53:37;;;;;;;9.30;6.35;;;;;;;23.26;51.86;100056.13;5014828;28;20041;-76
2022/05/23 10:56:21;;;;;;;12.55;5.45;;;;;;;23.32;52.22;100041.94;5016720;28;20049;-76
2022/05/23 10:59:08;;;;;;;10.13;5.30;;;;;;;23.43;51.66;100022.25;5015509;28;20042;-76
2022/05/23 11:02:01;;;;;;;9.60;6.05;;;;;;;23.53;50.57;100020.97;5015632;28;20047;-75
2022/05/23 11:04:41;;;;;;;10.18;6.03;;;;;;;23.62;50.87;100009.31;5013552;28;20037;-75
2022/05/23 11:07:28;;;;;;;9.55;4.85;;;;;;;23.77;51.98;100008.69;5014914;28;20104;-76
2022/05/23 11:10:19;;;;;;;11.07;4.50;;;;;;;23.83;51.82;100010.22;5011006;28;20048;-76
2022/05/23 11:12:55;;;;;;;8.60;4.22;;;;;;;23.77;51.67;100011.31;5014714;28;20025;-76
2022/05/23 11:15:36;;;;;;;9.38;5.10;;;;;;;23.70;50.88;99995.88;5017484;28;20139;-76
2022/05/23 11:18:38;;;;;;;9.45;4.78;;;;;;;23.81;50.72;99988.44;5014623;28;20112;-76
2022/05/23 11:21:07;;;;;;;10.20;5.75;;;;;;;23.72;49.76;99965.16;5016170;28;20125;-75
2022/05/23 11:23:45;;;;;;;9.68;5.32;;;;;;;23.74;49.74;99953.72;5018846;28;20029;-75
2022/05/23 11:26:20;;;;;;;12.27;6.30;;;;;;;23.76;50.29;99943.13;5016660;28;20079;-75
2022/05/23 11:35:10;;;;;;;17.58;6.72;;;;;;;23.53;50.21;99910.75;4970041;28;20077;-76
2022/05/23 11:37:49;;;;;;;10.82;5.30;;;;;;;23.49;49.10;99903.97;5001158;28;20058;-75
2022/05/23 11:40:30;;;;;;;8.05;4.88;;;;;;;23.41;47.79;99905.16;5020053;28;20053;-74
2022/05/23 11:43:00;;;;;;;8.57;4.43;;;;;;;23.37;48.18;99907.06;5019119;28;20037;-75
2022/05/23 11:48:33;;;;;;;12.70;4.18;;;;;;;23.37;50.11;99906.22;5023310;28;20068;-74
2022/05/23 11:51:23;;;;;;;12.05;4.45;;;;;;;23.39;49.51;99892.13;5024455;28;20025;-75
2022/05/23 11:53:56;;;;;;;17.40;4.30;;;;;;;23.46;50.19;99901.44;5022392;28;20040;-75
2022/05/23 11:56:35;;;;;;;10.43;4.85;;;;;;;23.48;48.98;99897.00;5022845;28;20078;-75
2022/05/23 11:59:02;;;;;;;10.23;4.60;;;;;;;23.54;50.27;99894.13;5020251;28;20064;-74
2022/05/23 12:01:30;;;;;;;11.93;4.53;;;;;;;23.58;49.35;99886.97;5024481;28;20415;-74
2022/05/23 12:03:57;;;;;;;10.32;4.70;;;;;;;23.54;48.01;99883.63;5023935;28;20017;-74
2022/05/23 12:06:23;;;;;;;7.32;4.60;;;;;;;23.47;48.72;99881.31;5027006;28;20034;-75
2022/05/23 12:08:57;;;;;;;10.38;4.25;;;;;;;23.49;49.68;99874.25;5022369;28;20034;-75
2022/05/23 12:11:33;;;;;;;9.10;3.92;;;;;;;23.47;48.90;99865.56;5024563;28;20452;-74
2022/05/23 12:14:24;;;;;;;7.60;3.95;;;;;;;23.45;49.94;99865.63;5023399;28;20044;-74
2022/05/23 12:16:53;;;;;;;6.20;3.67;;;;;;;23.41;48.86;99864.03;5018282;28;20045;-75
2022/05/23 12:19:27;;;;;;;;;;;;;;;23.48;49.26;99870.78;5024643;28;20025;-76
2022/05/23 12:22:12;;;;;;;5.95;3.00;;;;;;;23.34;48.40;99874.84;5024574;28;19921;-74
2022/05/23 12:24:56;;;;;;;8.00;3.53;;;;;;;23.32;48.77;99872.28;5020442;28;20051;-74
2022/05/23 12:27:27;;;;;;;7.28;3.25;;;;;;;23.24;48.54;99864.75;5020090;28;20040;-75
2022/05/23 12:30:23;;;;;;;6.45;2.70;;;;;;;23.23;49.03;99863.00;5020951;28;20037;-75
2022/05/23 12:32:52;;;;;;;5.80;2.33;;;;;;;23.17;49.33;99859.78;5022315;28;20483;-75
2022/05/23 12:35:27;;;;;;;5.72;2.65;;;;;;;23.14;48.95;99855.53;5014358;28;20042;-75
2022/05/23 12:38:14;;;;;;;7.38;2.20;;;;;;;23.12;48.54;99848.66;5019891;28;20026;-75